Terminal Aerodrome Forecast
Issued by NWS Wilmington, OH

Current Version | Previous Version | Text Only | Print | Product List | Glossary On
Versions: 1 2 3 4 5 6 7 8 9 10 11 12 13 14 15 16 17 18 19 20 21 22
000
FTUS41 KILN 281730
TAFILN
TAF
KILN 281730Z 2818/2918 02008KT P6SM OVC011
     FM282200 35006KT P6SM OVC023
     FM290300 36005KT P6SM OVC018
     FM291500 05006KT P6SM BKN020
     FM291700 05006KT P6SM BKN040=

USA.gov is the U.S. government's official web portal to all federal, state and local government web resources and services.